createdAt,value
2019-03-17T00:04:32.134Z,4.50
2019-03-17T00:09:40.913Z,4.40
2019-03-17T00:14:50.176Z,4.30
2019-03-17T00:19:57.672Z,4.40
2019-03-17T00:25:09.719Z,4.30
2019-03-17T00:30:13.358Z,4.30
2019-03-17T00:35:19.740Z,4.30
2019-03-17T00:40:26.027Z,4.10
2019-03-17T00:45:32.073Z,4.10
2019-03-17T00:50:39.494Z,4.10
2019-03-17T00:55:47.227Z,4.20
2019-03-17T01:00:53.905Z,4.30
2019-03-17T01:06:01.645Z,4.40
2019-03-17T01:11:11.998Z,4.10
2019-03-17T01:16:19.841Z,3.90
2019-03-17T01:21:26.501Z,3.80
2019-03-17T01:26:34.053Z,3.70
2019-03-17T01:31:41.495Z,3.70
2019-03-17T01:36:58.655Z,3.70
2019-03-17T01:42:04.622Z,3.70
2019-03-17T01:47:10.970Z,3.90
2019-03-17T01:52:17.110Z,3.80
2019-03-17T01:57:24.254Z,3.80
2019-03-17T02:02:31.135Z,4.10
2019-03-17T02:07:38.143Z,4.10
2019-03-17T02:12:45.629Z,3.80
2019-03-17T02:17:52.692Z,3.70
2019-03-17T02:22:58.836Z,3.70
2019-03-17T02:28:06.163Z,3.80
2019-03-17T02:33:12.089Z,4.00
2019-03-17T02:38:18.888Z,4.20
2019-03-17T02:43:26.137Z,4.10
2019-03-17T02:48:33.382Z,3.80
2019-03-17T02:53:42.448Z,3.80
2019-03-17T02:58:49.543Z,3.50
2019-03-17T03:03:56.880Z,3.50
2019-03-17T03:09:03.445Z,3.60
2019-03-17T03:14:09.711Z,3.90
2019-03-17T03:19:17.006Z,4.30
2019-03-17T03:24:24.141Z,4.20
2019-03-17T03:29:31.267Z,3.80
2019-03-17T03:34:41.008Z,3.80
2019-03-17T03:39:48.193Z,3.70
2019-03-17T03:44:54.513Z,3.50
2019-03-17T03:50:02.031Z,3.50
2019-03-17T03:55:08.393Z,3.40
2019-03-17T04:00:15.088Z,3.30
2019-03-17T04:05:21.001Z,3.10
2019-03-17T04:10:28.691Z,3.10
2019-03-17T04:15:35.952Z,2.90
2019-03-17T04:20:42.636Z,3.00
2019-03-17T04:25:49.368Z,3.00
2019-03-17T04:30:56.785Z,3.00
2019-03-17T04:36:05.301Z,3.00
2019-03-17T04:41:12.439Z,3.00
2019-03-17T04:46:19.484Z,3.00
2019-03-17T04:51:26.572Z,3.00
2019-03-17T04:56:33.408Z,3.30
2019-03-17T05:01:40.560Z,3.20
2019-03-17T05:06:52.464Z,3.40
2019-03-17T05:11:56.092Z,3.70
2019-03-17T05:17:03.948Z,3.90
2019-03-17T05:22:10.962Z,4.10
2019-03-17T05:27:17.903Z,4.20
2019-03-17T05:32:25.279Z,4.00
2019-03-17T05:37:32.905Z,3.70
2019-03-17T05:42:40.828Z,4.00
2019-03-17T05:47:48.702Z,4.70
2019-03-17T05:52:54.872Z,5.80
2019-03-17T05:58:01.770Z,6.70
2019-03-17T06:03:09.033Z,6.90
2019-03-17T06:08:15.947Z,6.90
2019-03-17T06:13:24.509Z,7.00
2019-03-17T06:18:31.726Z,7.00
2019-03-17T06:23:39.445Z,7.40
2019-03-17T06:28:46.928Z,8.00
2019-03-17T06:33:54.411Z,8.60
2019-03-17T06:39:03.239Z,9.00
2019-03-17T06:44:09.936Z,9.20
2019-03-17T06:49:17.268Z,9.30
2019-03-17T06:54:23.904Z,9.50
2019-03-17T06:59:30.881Z,9.60
2019-03-17T07:04:38.219Z,9.70
2019-03-17T07:09:45.843Z,9.70
2019-03-17T07:14:52.570Z,9.90
2019-03-17T07:19:59.223Z,9.90
2019-03-17T07:25:07.332Z,10.20
2019-03-17T07:30:13.908Z,10.50
2019-03-17T07:35:22.226Z,10.90
2019-03-17T07:40:28.823Z,11.00
2019-03-17T07:45:35.143Z,11.40
2019-03-17T07:50:42.357Z,11.60
2019-03-17T07:55:50.084Z,11.80
2019-03-17T08:01:03.298Z,12.20
2019-03-17T08:06:10.102Z,12.50
2019-03-17T08:11:16.378Z,12.70
2019-03-17T08:16:24.984Z,12.90
2019-03-17T08:21:31.592Z,12.80
2019-03-17T08:26:39.624Z,12.70
2019-03-17T08:31:46.479Z,12.70
2019-03-17T08:36:54.181Z,12.30
2019-03-17T08:42:02.640Z,11.70
2019-03-17T08:47:09.065Z,11.80
2019-03-17T08:52:16.356Z,11.90
2019-03-17T08:57:26.036Z,12.50
2019-03-17T09:02:33.947Z,12.90
2019-03-17T09:07:42.689Z,13.10
2019-03-17T09:13:08.763Z,13.30
2019-03-17T09:18:16.004Z,13.30
2019-03-17T09:23:22.962Z,13.70
2019-03-17T09:28:29.419Z,14.20
2019-03-17T09:33:35.875Z,14.40
2019-03-17T09:38:47.285Z,14.50
2019-03-17T09:43:51.366Z,14.40
2019-03-17T09:49:00.221Z,14.70
2019-03-17T09:54:07.487Z,15.40
2019-03-17T09:59:16.528Z,16.10
2019-03-17T10:04:25.292Z,16.50
2019-03-17T10:09:32.462Z,16.40
2019-03-17T10:14:47.837Z,16.70
2019-03-17T10:19:54.986Z,15.90
2019-03-17T10:25:01.823Z,15.20
2019-03-17T10:30:14.963Z,14.70
2019-03-17T10:35:21.379Z,14.50
2019-03-17T10:40:27.842Z,14.50
2019-03-17T10:45:33.875Z,14.30
2019-03-17T10:50:49.442Z,14.30
2019-03-17T10:56:06.186Z,14.20
2019-03-17T11:01:15.204Z,14.30
2019-03-17T11:06:21.532Z,14.40
2019-03-17T11:11:48.563Z,14.50
2019-03-17T11:16:56.210Z,15.00
2019-03-17T11:22:03.335Z,17.80
2019-03-17T11:27:11.467Z,21.60
2019-03-17T11:32:17.698Z,23.00
2019-03-17T11:37:24.767Z,22.40
2019-03-17T11:42:31.321Z,21.70
2019-03-17T11:47:37.632Z,19.10
2019-03-17T11:52:45.429Z,17.80
2019-03-17T11:57:52.148Z,17.20
2019-03-17T12:02:58.811Z,18.00
2019-03-17T12:08:06.145Z,19.40
2019-03-17T12:13:18.069Z,18.00
2019-03-17T12:18:24.635Z,17.10
2019-03-17T12:23:36.493Z,17.60
2019-03-17T12:28:43.331Z,17.40
2019-03-17T12:33:49.902Z,17.50
2019-03-17T12:38:58.203Z,18.50
2019-03-17T12:44:04.565Z,18.80
2019-03-17T12:49:12.449Z,18.20
2019-03-17T12:54:18.650Z,19.10
2019-03-17T12:59:25.344Z,18.60
2019-03-17T13:04:33.153Z,19.50
2019-03-17T13:09:40.460Z,19.30
2019-03-17T13:15:07.823Z,18.40
2019-03-17T13:20:16.315Z,18.20
2019-03-17T13:25:22.814Z,17.70
2019-03-17T13:30:29.892Z,17.50
2019-03-17T13:35:37.414Z,17.00
2019-03-17T13:40:44.656Z,16.60
2019-03-17T13:45:53.686Z,16.30
2019-03-17T13:51:01.216Z,16.00
2019-03-17T13:56:12.078Z,16.00
2019-03-17T14:01:18.922Z,15.70
2019-03-17T14:06:26.668Z,15.50
2019-03-17T14:11:35.722Z,15.10
2019-03-17T14:16:42.240Z,15.00
2019-03-17T14:21:56.428Z,15.00
2019-03-17T14:27:02.304Z,15.00
2019-03-17T14:32:08.500Z,14.80
2019-03-17T14:37:14.372Z,14.40
2019-03-17T14:42:23.846Z,14.10
2019-03-17T14:47:30.494Z,14.20
2019-03-17T14:52:38.771Z,14.50
2019-03-17T14:57:45.551Z,14.70
2019-03-17T15:02:52.233Z,14.60
2019-03-17T15:07:58.723Z,14.40
2019-03-17T15:13:05.544Z,14.30
2019-03-17T15:18:14.317Z,14.30
2019-03-17T15:23:21.927Z,13.90
2019-03-17T15:28:31.154Z,13.70
2019-03-17T15:33:41.182Z,13.60
2019-03-17T15:38:53.977Z,13.50
2019-03-17T15:44:01.297Z,12.90
2019-03-17T15:49:08.851Z,12.50
2019-03-17T15:54:14.661Z,12.20
2019-03-17T15:59:22.005Z,11.90
2019-03-17T16:04:29.216Z,11.60
2019-03-17T16:09:36.938Z,11.20
2019-03-17T16:14:43.161Z,10.80
2019-03-17T16:19:50.136Z,9.80
2019-03-17T16:24:57.579Z,8.60
2019-03-17T16:30:05.183Z,7.90
2019-03-17T16:35:12.044Z,7.40
2019-03-17T16:40:20.773Z,7.10
2019-03-17T16:45:27.215Z,6.90
2019-03-17T16:50:37.144Z,6.60
2019-03-17T16:55:45.824Z,6.40
2019-03-17T17:00:55.031Z,6.20
2019-03-17T17:06:03.229Z,6.00
2019-03-17T17:11:10.440Z,5.90
2019-03-17T17:16:17.577Z,5.90
2019-03-17T17:21:26.112Z,5.90
2019-03-17T17:26:37.636Z,5.80
2019-03-17T17:31:41.822Z,5.60
2019-03-17T17:36:49.694Z,5.50
2019-03-17T17:42:08.085Z,5.40
2019-03-17T17:47:05.220Z,4.80
2019-03-17T17:52:12.995Z,4.40
2019-03-17T17:57:20.570Z,4.30
2019-03-17T18:02:32.756Z,4.20
2019-03-17T18:07:40.700Z,4.10
2019-03-17T18:12:48.338Z,4.10
2019-03-17T18:17:56.137Z,4.00
2019-03-17T18:23:03.997Z,4.10
2019-03-17T18:28:11.634Z,4.20
2019-03-17T18:33:19.250Z,4.20
2019-03-17T18:38:27.152Z,4.20
2019-03-17T18:43:34.579Z,4.20
2019-03-17T18:48:41.996Z,4.10
2019-03-17T18:53:49.500Z,4.20
2019-03-17T18:59:00.279Z,4.20
2019-03-17T19:04:19.989Z,4.20
2019-03-17T19:09:27.070Z,4.20
2019-03-17T19:14:35.009Z,4.20
2019-03-17T19:19:42.384Z,4.20
2019-03-17T19:24:50.149Z,4.20
2019-03-17T19:29:57.984Z,4.30
2019-03-17T19:35:24.426Z,4.30
2019-03-17T19:40:38.391Z,4.30
2019-03-17T19:45:45.584Z,4.30
2019-03-17T19:50:52.236Z,4.30
2019-03-17T19:55:59.943Z,4.30
2019-03-17T20:01:07.391Z,4.40
2019-03-17T20:06:15.508Z,4.40
2019-03-17T20:11:25.615Z,4.40
2019-03-17T20:16:32.310Z,4.40
2019-03-17T20:21:45.759Z,4.40
2019-03-17T20:26:53.469Z,4.50
2019-03-17T20:32:00.701Z,4.50
2019-03-17T20:37:08.350Z,4.60
2019-03-17T20:42:15.295Z,4.60
2019-03-17T20:47:22.791Z,4.70
2019-03-17T20:52:30.542Z,4.70
2019-03-17T20:57:37.689Z,4.60
2019-03-17T21:02:45.245Z,4.70
2019-03-17T21:07:53.276Z,4.70
2019-03-17T21:12:59.194Z,4.70
2019-03-17T21:18:05.420Z,4.70
2019-03-17T21:23:11.712Z,4.70
2019-03-17T21:28:18.267Z,4.70
2019-03-17T21:33:25.318Z,4.70
2019-03-17T21:38:51.828Z,4.70
2019-03-17T21:43:59.734Z,3.50
2019-03-17T21:49:08.470Z,3.10
2019-03-17T21:54:16.198Z,2.70
2019-03-17T21:59:29.119Z,2.40
2019-03-17T22:04:35.554Z,2.40
2019-03-17T22:09:41.687Z,2.50
2019-03-17T22:14:48.930Z,2.60
2019-03-17T22:19:55.145Z,2.60
2019-03-17T22:25:01.731Z,2.70
2019-03-17T22:30:09.280Z,2.80
2019-03-17T22:35:15.590Z,3.00
2019-03-17T22:40:21.942Z,3.10
2019-03-17T22:45:28.221Z,3.20
2019-03-17T22:50:34.817Z,3.30
2019-03-17T22:55:41.426Z,3.40
2019-03-17T23:00:49.358Z,3.50
2019-03-17T23:05:56.940Z,3.50
2019-03-17T23:11:08.233Z,3.70
2019-03-17T23:16:14.795Z,3.80
2019-03-17T23:21:21.937Z,3.80
2019-03-17T23:26:29.327Z,3.90
2019-03-17T23:31:36.718Z,4.00
2019-03-17T23:36:44.860Z,4.10
2019-03-17T23:41:52.177Z,4.10
2019-03-17T23:46:59.188Z,4.10
2019-03-17T23:52:05.725Z,4.10
2019-03-17T23:57:12.414Z,4.10
